Time;durP1;ratioP1;P1;durP2;ratioP2;P2;SDS_P1;SDS_P2;PMS_P1;PMS_P2;Temp;Humidity;BMP_temperature;BMP_pressure;BME280_temperature;BME280_humidity;BME280_pressure;Samples;Min_cycle;Max_cycle;Signal;HPM_P1;HPM_P2
2023/11/14 00:00:11;;;;;;;16.13;3.72;;;;;;;11.71;80.15;99100.91;7390904;19;20361;-59
2023/11/14 00:02:38;;;;;;;22.35;4.43;;;;;;;11.75;80.24;99095.94;7390198;19;20696;-59
2023/11/14 00:05:05;;;;;;;17.38;4.00;;;;;;;11.73;80.31;99104.16;7391440;19;20384;-59
2023/11/14 00:07:32;;;;;;;18.40;4.00;;;;;;;11.78;80.39;99104.28;7389388;19;20444;-59
2023/11/14 00:09:59;;;;;;;19.98;3.75;;;;;;;11.80;80.46;99099.56;7392981;19;20883;-60
2023/11/14 00:12:26;;;;;;;13.70;3.92;;;;;;;11.82;80.17;99092.19;7393151;19;20364;-60
2023/11/14 00:14:52;;;;;;;16.42;3.97;;;;;;;11.79;80.31;99094.47;7390668;19;20533;-60
2023/11/14 00:17:19;;;;;;;17.42;3.53;;;;;;;11.83;80.38;99125.69;7390383;19;20385;-61
2023/11/14 00:19:47;;;;;;;16.15;3.78;;;;;;;11.85;80.45;99106.88;7391896;19;20431;-62
2023/11/14 00:22:14;;;;;;;14.43;4.07;;;;;;;11.83;80.32;99122.22;7391761;19;20902;-61
2023/11/14 00:24:41;;;;;;;17.52;4.18;;;;;;;11.86;80.48;99108.50;7391453;19;20367;-62
2023/11/14 00:27:08;;;;;;;19.95;4.22;;;;;;;11.87;80.37;99109.31;7391878;19;20349;-60
2023/11/14 00:29:35;;;;;;;21.60;4.60;;;;;;;11.88;80.22;99101.16;7392728;19;20372;-60
2023/11/14 00:32:03;;;;;;;16.08;3.80;;;;;;;11.90;80.05;99100.91;7391829;19;20417;-60
2023/11/14 00:34:31;;;;;;;16.52;3.60;;;;;;;11.91;80.02;99106.00;7388259;19;20821;-61
2023/11/14 00:36:58;;;;;;;17.27;3.90;;;;;;;11.93;79.87;99103.13;7390319;19;20360;-58
2023/11/14 00:39:27;;;;;;;16.58;3.80;;;;;;;11.90;79.91;99112.38;7392355;19;20889;-60
2023/11/14 00:41:54;;;;;;;19.48;4.43;;;;;;;11.91;80.14;99094.59;7390821;19;20863;-61
2023/11/14 00:44:21;;;;;;;18.43;3.97;;;;;;;11.94;80.18;99104.75;7390913;19;20380;-60
2023/11/14 00:46:49;;;;;;;16.60;4.22;;;;;;;11.95;80.12;99093.91;7389546;19;20364;-60
2023/11/14 00:49:16;;;;;;;17.65;4.00;;;;;;;11.95;80.33;99079.81;7391041;19;20336;-62
2023/11/14 00:51:43;;;;;;;19.38;4.72;;;;;;;11.94;80.39;99110.06;7392014;19;20472;-61
2023/11/14 00:54:09;;;;;;;16.97;3.97;;;;;;;11.94;80.56;99075.53;7387569;19;20372;-61
2023/11/14 00:56:36;;;;;;;16.90;4.00;;;;;;;11.96;80.64;99076.91;7387872;19;20367;-62
2023/11/14 00:59:04;;;;;;;16.95;3.65;;;;;;;11.94;80.56;99100.28;7390708;19;20352;-59
2023/11/14 01:01:31;;;;;;;15.02;4.13;;;;;;;11.94;80.74;99079.00;7387038;19;20736;-62
2023/11/14 01:03:58;;;;;;;19.20;4.28;;;;;;;11.95;80.85;99064.69;7381820;19;20470;-59
2023/11/14 01:06:26;;;;;;;17.73;4.18;;;;;;;11.92;80.86;99075.75;7389701;19;20371;-59
2023/11/14 01:08:53;;;;;;;19.63;4.50;;;;;;;11.94;80.98;99070.22;7386450;19;20444;-60
2023/11/14 01:11:20;;;;;;;19.13;4.07;;;;;;;11.96;81.18;99068.13;7388211;19;20360;-60
2023/11/14 01:13:47;;;;;;;15.68;4.35;;;;;;;11.93;80.92;99073.91;7385666;19;20373;-59
2023/11/14 01:16:16;;;;;;;20.50;4.32;;;;;;;11.97;80.91;99061.81;7391614;19;20356;-60
2023/11/14 01:18:43;;;;;;;17.52;4.45;;;;;;;12.00;80.96;99064.00;7394634;19;20355;-61
2023/11/14 01:21:17;;;;;;;16.20;3.97;;;;;;;11.99;80.96;99051.75;7398724;19;20703;-61
2023/11/14 01:23:44;;;;;;;18.25;4.50;;;;;;;11.96;81.03;99060.97;7397739;19;20770;-60
2023/11/14 01:26:13;;;;;;;14.77;4.07;;;;;;;11.95;80.86;99062.03;7396885;19;20356;-60
2023/11/14 01:28:41;;;;;;;16.40;4.03;;;;;;;11.97;80.86;99062.59;7394818;19;20352;-60
2023/11/14 01:31:19;;;;;;;19.88;4.40;;;;;;;11.99;80.67;99070.38;7395605;19;20381;-60
2023/11/14 01:33:46;;;;;;;16.02;3.80;;;;;;;11.98;80.77;99074.84;7394775;19;20377;-61
2023/11/14 01:36:13;;;;;;;18.73;4.63;;;;;;;12.04;80.35;99049.22;7395563;19;20373;-60
2023/11/14 01:38:40;;;;;;;17.33;4.03;;;;;;;12.07;80.23;99062.09;7395418;19;20411;-60
2023/11/14 01:41:07;;;;;;;17.55;3.92;;;;;;;12.05;80.08;99053.53;7396207;19;20382;-59
2023/11/14 01:43:41;;;;;;;15.38;3.30;;;;;;;12.04;79.79;99038.59;7396998;19;20400;-60
2023/11/14 01:46:12;;;;;;;16.48;3.38;;;;;;;12.13;79.71;99026.59;7395626;19;20364;-59
2023/11/14 01:48:40;;;;;;;18.10;4.22;;;;;;;12.16;79.49;99046.63;7390856;19;21139;-59
2023/11/14 01:51:07;;;;;;;17.50;4.20;;;;;;;12.20;79.44;99064.56;7394799;19;20526;-60
2023/11/14 01:53:34;;;;;;;19.15;4.00;;;;;;;12.21;79.72;99057.38;7394221;19;20363;-60
2023/11/14 01:56:01;;;;;;;16.75;3.85;;;;;;;12.21;79.89;99092.75;7396656;19;20381;-61
2023/11/14 01:58:28;;;;;;;16.65;3.92;;;;;;;12.26;79.93;99049.53;7395043;19;20436;-60
2023/11/14 02:00:55;;;;;;;16.52;3.92;;;;;;;12.23;80.10;99096.00;7395931;19;20695;-60
2023/11/14 02:03:22;;;;;;;14.45;3.55;;;;;;;12.26;79.84;99064.69;7390776;19;20406;-59
2023/11/14 02:05:49;;;;;;;16.30;4.18;;;;;;;12.24;80.14;99062.28;7394673;19;21041;-60
2023/11/14 02:08:16;;;;;;;15.38;3.70;;;;;;;12.27;80.37;99061.00;7392510;19;20340;-61
2023/11/14 02:10:44;;;;;;;15.90;4.10;;;;;;;12.23;80.47;99061.44;7392520;19;20863;-59
2023/11/14 02:13:11;;;;;;;17.27;3.88;;;;;;;12.21;80.19;99068.81;7395870;19;20364;-59
2023/11/14 02:15:39;;;;;;;16.77;4.45;;;;;;;12.23;80.34;99103.97;7397273;19;20341;-61
2023/11/14 02:18:05;;;;;;;17.80;4.38;;;;;;;12.26;80.05;99070.00;7393263;19;20393;-59
2023/11/14 02:20:34;;;;;;;15.55;4.47;;;;;;;12.30;79.58;99082.59;7394648;19;20425;-60
2023/11/14 02:23:04;;;;;;;18.77;4.43;;;;;;;12.40;79.49;99087.41;7392568;19;20902;-62
2023/11/14 02:25:31;;;;;;;15.10;3.35;;;;;;;12.43;79.33;99094.91;7391333;19;20446;-61
2023/11/14 02:27:58;;;;;;;15.07;3.60;;;;;;;12.46;79.02;99069.72;7393072;19;20368;-61
2023/11/14 02:30:25;;;;;;;15.52;3.95;;;;;;;12.46;79.05;99081.19;7393485;19;20367;-60
2023/11/14 02:32:52;;;;;;;18.60;4.40;;;;;;;12.45;78.97;99082.19;7395407;19;20365;-61
2023/11/14 02:35:19;;;;;;;13.13;3.17;;;;;;;12.40;78.66;99079.41;7395960;19;20752;-58
2023/11/14 02:37:46;;;;;;;16.05;3.88;;;;;;;12.37;78.93;99111.78;7393605;19;20384;-61
2023/11/14 02:40:13;;;;;;;18.52;4.00;;;;;;;12.37;79.17;99093.97;7392573;19;20353;-60
2023/11/14 02:42:43;;;;;;;14.60;3.30;;;;;;;12.30;79.29;99087.13;7392668;19;20903;-59
2023/11/14 02:45:10;;;;;;;17.20;4.32;;;;;;;12.26;79.72;99085.94;7393536;19;20356;-59
2023/11/14 02:47:39;;;;;;;18.05;4.03;;;;;;;12.18;79.70;99079.91;7394417;19;20348;-60
2023/11/14 02:50:33;;;;;;;18.05;4.20;;;;;;;12.13;80.11;99082.41;7394693;19;20340;-61
2023/11/14 02:52:59;;;;;;;19.30;4.57;;;;;;;12.13;80.30;99065.66;7392509;19;20360;-59
2023/11/14 02:55:26;;;;;;;15.82;3.90;;;;;;;12.11;80.38;99065.88;7394088;19;20925;-61
2023/11/14 02:57:53;;;;;;;18.33;4.50;;;;;;;12.12;80.79;99064.88;7392877;19;20363;-61
2023/11/14 03:00:21;;;;;;;18.48;4.20;;;;;;;12.13;81.03;99074.44;7394423;19;21278;-59
2023/11/14 03:02:48;;;;;;;15.73;4.47;;;;;;;12.06;81.57;99081.72;7390906;19;20448;-59
2023/11/14 03:05:15;;;;;;;22.10;4.47;;;;;;;11.99;82.25;99086.31;7392630;19;20499;-61
2023/11/14 03:07:42;;;;;;;17.48;4.20;;;;;;;11.92;82.80;99082.91;7394165;19;20336;-60
2023/11/14 03:10:09;;;;;;;21.30;4.97;;;;;;;11.89;83.23;99115.25;7393149;19;20433;-60
2023/11/14 03:12:36;;;;;;;14.52;3.80;;;;;;;11.89;83.66;99094.00;7394605;19;20389;-60
2023/11/14 03:15:04;;;;;;;15.47;4.43;;;;;;;11.81;83.90;99101.19;7391509;19;20389;-62
2023/11/14 03:17:31;;;;;;;17.20;4.97;;;;;;;11.84;83.83;99106.06;7393463;19;20924;-62
2023/11/14 03:19:58;;;;;;;22.30;5.20;;;;;;;11.84;83.73;99097.28;7392014;19;20393;-60
2023/11/14 03:22:25;;;;;;;19.20;4.23;;;;;;;11.79;83.54;99103.28;7392246;19;20715;-60
2023/11/14 03:24:52;;;;;;;17.67;4.38;;;;;;;11.81;83.38;99101.19;7390905;19;20868;-60
2023/11/14 03:27:18;;;;;;;20.63;4.80;;;;;;;11.83;83.05;99160.22;7393643;19;20372;-60
2023/11/14 03:29:45;;;;;;;16.90;3.97;;;;;;;11.84;82.86;99108.72;7393536;19;20354;-60
2023/11/14 03:32:12;;;;;;;15.30;3.83;;;;;;;11.87;82.70;99115.44;7393332;19;20447;-59
2023/11/14 03:34:39;;;;;;;16.55;3.85;;;;;;;11.90;82.69;99124.81;7388332;19;20361;-60
2023/11/14 03:37:06;;;;;;;14.32;3.83;;;;;;;11.90;82.58;99114.19;7392041;19;20365;-61
2023/11/14 03:39:33;;;;;;;18.27;4.38;;;;;;;11.94;82.44;99107.41;7389900;19;20671;-60
2023/11/14 03:42:00;;;;;;;17.40;3.88;;;;;;;11.91;82.47;99132.59;7391547;19;20382;-60
2023/11/14 03:44:27;;;;;;;17.77;4.07;;;;;;;11.96;82.65;99137.22;7392781;19;20876;-61
2023/11/14 03:46:54;;;;;;;18.65;4.25;;;;;;;11.95;83.14;99117.81;7390375;19;20436;-60
2023/11/14 03:49:21;;;;;;;15.45;4.22;;;;;;;11.95;83.59;99101.06;7391384;19;20873;-60
2023/11/14 03:51:48;;;;;;;15.10;4.32;;;;;;;11.87;83.52;99110.13;7393233;19;20348;-58
2023/11/14 03:54:15;;;;;;;16.90;4.10;;;;;;;11.83;83.42;99120.38;7392768;19;20332;-59
2023/11/14 03:56:42;;;;;;;15.50;3.87;;;;;;;11.83;83.49;99152.25;7391660;19;20372;-60
2023/11/14 03:59:08;;;;;;;18.42;3.97;;;;;;;11.81;83.40;99106.50;7390046;19;20467;-59
2023/11/14 04:01:36;;;;;;;17.27;4.50;;;;;;;11.82;83.22;99126.72;7390168;19;20372;-58
2023/11/14 04:04:03;;;;;;;15.75;3.95;;;;;;;11.82;83.32;99117.94;7390344;19;20368;-58
2023/11/14 04:06:30;;;;;;;16.73;3.97;;;;;;;11.86;83.34;99113.81;7392803;19;20943;-58
2023/11/14 04:08:57;;;;;;;14.07;3.13;;;;;;;11.83;83.45;99128.34;7387157;19;20461;-59
2023/11/14 04:11:24;;;;;;;16.02;3.45;;;;;;;11.87;83.41;99123.41;7391805;19;20368;-59
2023/11/14 04:13:50;;;;;;;15.85;4.07;;;;;;;11.86;83.54;99160.81;7392987;19;20357;-60
2023/11/14 04:16:19;;;;;;;13.95;3.38;;;;;;;11.83;83.54;99131.00;7392175;19;20365;-60
2023/11/14 04:18:46;;;;;;;15.48;3.75;;;;;;;11.85;84.00;99136.09;7390622;19;20468;-59
2023/11/14 04:21:19;;;;;;;14.60;3.35;;;;;;;11.82;84.65;99158.63;7390177;19;20368;-60
2023/11/14 04:23:46;;;;;;;16.15;3.67;;;;;;;11.80;85.09;99136.75;7392421;19;20900;-60
2023/11/14 04:26:17;;;;;;;15.05;3.55;;;;;;;11.81;85.20;99127.75;7388260;19;20372;-61
2023/11/14 04:28:43;;;;;;;17.15;4.40;;;;;;;11.79;85.71;99148.44;7389412;19;20769;-60
2023/11/14 04:31:10;;;;;;;14.77;3.73;;;;;;;11.78;86.86;99165.41;7393283;19;20891;-61
2023/11/14 04:33:37;;;;;;;12.40;3.80;;;;;;;11.74;88.04;99150.94;7389289;19;20360;-62
2023/11/14 04:36:06;;;;;;;16.40;3.83;;;;;;;11.67;88.38;99152.84;7389955;19;20368;-62
2023/11/14 04:38:34;;;;;;;21.92;4.13;;;;;;;11.61;88.71;99137.78;7392131;19;20720;-62
2023/11/14 04:41:01;;;;;;;17.95;4.15;;;;;;;11.49;89.22;99139.53;7389695;19;20971;-62
2023/11/14 04:43:29;;;;;;;21.52;4.70;;;;;;;11.40;89.38;99142.47;7388885;19;21658;-61
2023/11/14 04:45:55;;;;;;;17.20;3.83;;;;;;;11.36;89.69;99141.28;7390105;19;20383;-59
2023/11/14 04:48:22;;;;;;;22.42;4.43;;;;;;;11.27;90.00;99131.97;7390732;19;20431;-59
2023/11/14 04:50:49;;;;;;;21.33;4.53;;;;;;;11.27;90.33;99141.78;7391087;19;20361;-61
2023/11/14 04:53:16;;;;;;;17.05;4.10;;;;;;;11.23;90.58;99146.72;7388794;19;20405;-61
2023/11/14 04:55:43;;;;;;;18.42;3.97;;;;;;;11.23;90.55;99141.41;7387695;19;20714;-60
2023/11/14 04:58:09;;;;;;;17.95;4.50;;;;;;;11.25;90.41;99157.94;7392718;19;20514;-59
2023/11/14 05:00:36;;;;;;;19.52;4.07;;;;;;;11.25;90.83;99181.81;7390531;19;20670;-59
2023/11/14 05:03:05;;;;;;;18.70;4.70;;;;;;;11.30;91.55;99152.75;7389307;19;20372;-65
2023/11/14 05:05:32;;;;;;;17.77;3.80;;;;;;;11.25;92.38;99155.28;7390464;19;20725;-65
2023/11/14 05:07:59;;;;;;;19.13;4.57;;;;;;;11.23;92.91;99138.75;7391555;19;20723;-66
2023/11/14 05:10:26;;;;;;;23.70;4.80;;;;;;;11.18;93.63;99147.38;7392987;19;20769;-66
2023/11/14 05:12:53;;;;;;;18.13;4.03;;;;;;;11.15;93.68;99139.81;7390746;19;20511;-66
2023/11/14 05:15:20;;;;;;;16.83;4.13;;;;;;;11.10;94.06;99186.63;7389061;19;20375;-66
2023/11/14 05:17:46;;;;;;;16.13;4.20;;;;;;;11.12;94.35;99155.38;7390766;19;20443;-66
2023/11/14 05:20:13;;;;;;;17.92;4.45;;;;;;;11.09;94.22;99190.31;7392314;19;20381;-65
2023/11/14 05:22:40;;;;;;;21.10;4.40;;;;;;;11.10;93.78;99157.44;7387440;19;20471;-66
2023/11/14 05:25:11;;;;;;;14.40;3.45;;;;;;;11.11;92.44;99175.78;7391029;19;20504;-66
2023/11/14 05:27:38;;;;;;;16.13;3.37;;;;;;;11.10;91.55;99176.81;7390162;19;20380;-65
2023/11/14 05:30:09;;;;;;;11.98;3.38;;;;;;;11.15;91.16;99165.56;7389769;19;20847;-65
2023/11/14 05:32:37;;;;;;;12.43;3.30;;;;;;;11.13;91.13;99157.00;7390564;19;20360;-65
2023/11/14 05:35:04;;;;;;;11.32;2.53;;;;;;;11.05;91.00;99149.28;7389840;19;20347;-65
2023/11/14 05:37:31;;;;;;;12.52;3.08;;;;;;;11.01;91.76;99180.78;7388314;19;20895;-66
2023/11/14 05:39:58;;;;;;;11.30;2.70;;;;;;;10.94;92.94;99167.53;7389796;19;20412;-67
2023/11/14 05:42:25;;;;;;;16.08;3.28;;;;;;;10.91;94.94;99146.75;7390399;19;20382;-66
2023/11/14 05:44:52;;;;;;;13.05;3.22;;;;;;;10.89;96.39;99143.50;7389823;19;20360;-67
2023/11/14 05:47:19;;;;;;;14.90;3.95;;;;;;;10.79;98.00;99143.97;7391115;19;20348;-67
2023/11/14 05:49:46;;;;;;;17.48;4.13;;;;;;;10.75;98.70;99141.94;7386386;19;20360;-67
2023/11/14 05:52:13;;;;;;;17.95;4.35;;;;;;;10.73;98.77;99141.34;7391205;19;20371;-68
2023/11/14 05:54:40;;;;;;;17.23;4.70;;;;;;;10.69;99.26;99132.19;7389887;19;20342;-67
2023/11/14 05:57:06;;;;;;;18.55;4.18;;;;;;;10.65;99.76;99142.44;7392042;19;20357;-68
2023/11/14 05:59:33;;;;;;;17.95;4.15;;;;;;;10.61;100.00;99128.78;7391933;19;20371;-67
2023/11/14 06:02:00;;;;;;;18.10;4.33;;;;;;;10.59;100.00;99141.44;7389748;19;20367;-67
2023/11/14 06:04:27;;;;;;;17.60;4.30;;;;;;;10.56;99.74;99155.16;7391925;19;20408;-68
2023/11/14 06:06:58;;;;;;;17.88;4.13;;;;;;;10.60;99.53;99132.47;7397137;19;20723;-67
2023/11/14 06:09:24;;;;;;;18.80;3.88;;;;;;;10.64;99.39;99137.34;7394573;19;20332;-67
2023/11/14 06:11:51;;;;;;;18.83;4.27;;;;;;;10.65;99.15;99133.66;7398220;19;20374;-67
2023/11/14 06:14:18;;;;;;;20.08;4.35;;;;;;;10.66;98.52;99135.28;7400095;19;20414;-67
2023/11/14 06:16:45;;;;;;;17.95;4.72;;;;;;;10.65;98.64;99128.34;7398095;19;20352;-67
2023/11/14 06:19:12;;;;;;;17.05;4.63;;;;;;;10.65;98.36;99123.03;7395046;19;20375;-67
2023/11/14 06:21:40;;;;;;;18.02;4.75;;;;;;;10.68;97.74;99125.28;7397568;19;20382;-67
2023/11/14 06:24:07;;;;;;;13.23;3.55;;;;;;;10.66;96.83;99127.34;7396682;19;20376;-66
2023/11/14 06:26:34;;;;;;;16.58;4.00;;;;;;;10.70;96.68;99155.06;7397330;19;20863;-66
2023/11/14 06:29:01;;;;;;;17.63;4.18;;;;;;;10.76;95.80;99164.81;7397734;19;20455;-67
2023/11/14 06:31:28;;;;;;;16.93;3.93;;;;;;;10.84;94.53;99158.41;7399205;19;20411;-66
2023/11/14 06:33:55;;;;;;;20.70;4.47;;;;;;;10.94;94.36;99153.47;7397882;19;20358;-66
2023/11/14 06:36:21;;;;;;;15.35;3.65;;;;;;;10.96;93.78;99194.66;7396306;19;20364;-66
2023/11/14 06:38:48;;;;;;;18.95;4.20;;;;;;;11.02;93.50;99161.16;7398043;19;20348;-66
2023/11/14 06:41:15;;;;;;;17.42;3.97;;;;;;;11.09;92.95;99166.41;7397228;19;20363;-65
2023/11/14 06:43:42;;;;;;;16.13;4.00;;;;;;;11.14;92.29;99201.09;7395114;19;20367;-65
2023/11/14 06:46:08;;;;;;;18.43;3.80;;;;;;;11.21;91.75;99185.94;7397496;19;20391;-65
2023/11/14 06:48:37;;;;;;;17.42;3.78;;;;;;;11.24;91.09;99212.03;7396943;19;20368;-65
2023/11/14 06:51:05;;;;;;;18.75;3.92;;;;;;;11.27;90.93;99182.41;7396699;19;20367;-65
2023/11/14 06:53:31;;;;;;;14.52;4.10;;;;;;;11.30;89.72;99231.59;7397336;19;20708;-64
2023/11/14 06:55:58;;;;;;;16.38;4.60;;;;;;;11.36;89.76;99189.06;7395480;19;20357;-64
2023/11/14 06:58:26;;;;;;;16.13;3.83;;;;;;;11.41;89.50;99207.00;7397395;19;20345;-64
2023/11/14 07:00:52;;;;;;;12.30;3.20;;;;;;;11.41;89.01;99175.97;7396028;19;20380;-64
2023/11/14 07:03:19;;;;;;;14.05;3.38;;;;;;;11.45;88.67;99180.84;7391265;19;20344;-64
2023/11/14 07:05:46;;;;;;;14.85;3.30;;;;;;;11.51;88.30;99228.56;7393823;19;20409;-63
2023/11/14 07:08:13;;;;;;;16.58;3.35;;;;;;;11.59;87.96;99183.16;7387182;19;20360;-63
2023/11/14 07:10:40;;;;;;;15.00;3.42;;;;;;;11.68;87.50;99209.44;7392510;19;20392;-63
2023/11/14 07:13:07;;;;;;;12.18;3.22;;;;;;;11.74;87.07;99217.34;7395422;19;20417;-63
2023/11/14 07:15:34;;;;;;;12.55;2.83;;;;;;;11.82;86.98;99213.59;7391049;19;20772;-63
2023/11/14 07:18:02;;;;;;;11.05;2.92;;;;;;;11.87;86.57;99202.31;7395308;19;20707;-64
2023/11/14 07:20:29;;;;;;;12.40;2.90;;;;;;;11.93;86.71;99215.56;7393940;19;20389;-64
2023/11/14 07:22:56;;;;;;;13.50;3.25;;;;;;;11.93;86.36;99222.72;7392764;19;20352;-64
2023/11/14 07:25:23;;;;;;;17.10;4.07;;;;;;;11.93;85.94;99206.78;7393515;19;20348;-63
2023/11/14 07:27:51;;;;;;;12.38;3.50;;;;;;;11.98;86.05;99236.16;7394615;19;20378;-64
2023/11/14 07:30:18;;;;;;;13.38;2.80;;;;;;;11.99;86.11;99230.63;7394040;19;20887;-64
2023/11/14 07:32:45;;;;;;;15.95;3.30;;;;;;;12.01;85.88;99249.81;7392231;19;20384;-64
2023/11/14 07:35:12;;;;;;;12.57;2.92;;;;;;;12.07;85.54;99221.56;7393952;19;20393;-65
2023/11/14 07:37:39;;;;;;;9.57;2.67;;;;;;;12.14;85.76;99240.91;7390303;19;20396;-64
2023/11/14 07:40:06;;;;;;;20.88;3.58;;;;;;;12.13;86.03;99249.88;7393515;19;20368;-65
2023/11/14 07:42:33;;;;;;;13.80;3.50;;;;;;;12.12;85.27;99240.31;7389101;19;20371;-64
2023/11/14 07:45:00;;;;;;;14.43;3.08;;;;;;;12.14;85.34;99230.25;7394977;19;20360;-64
2023/11/14 07:47:28;;;;;;;16.30;3.43;;;;;;;12.12;85.37;99261.56;7393525;19;20889;-64
2023/11/14 07:49:55;;;;;;;18.02;3.83;;;;;;;12.17;85.51;99267.03;7393238;19;20355;-64
2023/11/14 07:52:22;;;;;;;15.65;3.83;;;;;;;12.20;85.67;99242.69;7392484;19;20358;-64
2023/11/14 07:54:53;;;;;;;15.27;3.90;;;;;;;12.23;85.01;99258.16;7392601;19;20435;-64
2023/11/14 07:57:19;;;;;;;17.60;4.22;;;;;;;12.32;84.99;99249.91;7393586;19;20912;-64
2023/11/14 07:59:46;;;;;;;12.35;3.05;;;;;;;12.34;84.53;99263.78;7394389;19;20370;-64
2023/11/14 08:02:13;;;;;;;13.27;3.73;;;;;;;12.35;83.62;99260.91;7392605;19;20356;-63
2023/11/14 08:04:40;;;;;;;17.80;3.88;;;;;;;12.43;83.41;99287.22;7394276;19;20472;-63
2023/11/14 08:07:09;;;;;;;17.95;3.83;;;;;;;12.52;83.53;99255.81;7393219;19;20368;-63
2023/11/14 08:09:36;;;;;;;13.35;3.35;;;;;;;12.47;83.23;99282.25;7394442;19;20340;-63
2023/11/14 08:12:03;;;;;;;16.42;4.03;;;;;;;12.52;83.07;99266.47;7390931;19;20365;-62
2023/11/14 08:14:30;;;;;;;17.30;3.80;;;;;;;12.52;83.01;99250.50;7392730;19;20895;-62
2023/11/14 08:16:57;;;;;;;19.45;4.10;;;;;;;12.60;83.01;99273.31;7393677;19;20341;-62
2023/11/14 08:19:24;;;;;;;15.15;3.30;;;;;;;12.61;82.89;99237.69;7392587;19;20352;-63
2023/11/14 08:21:51;;;;;;;12.00;3.17;;;;;;;12.52;82.61;99287.75;7392740;19;20872;-62
2023/11/14 08:24:19;;;;;;;16.73;3.30;;;;;;;12.58;82.64;99244.28;7394186;19;20347;-62
2023/11/14 08:26:46;;;;;;;16.02;3.92;;;;;;;12.60;81.95;99263.50;7391246;19;20360;-63
2023/11/14 08:29:12;;;;;;;15.43;3.55;;;;;;;12.68;81.97;99256.25;7391794;19;20843;-62
2023/11/14 08:31:39;;;;;;;13.45;3.78;;;;;;;12.76;81.94;99255.94;7391241;19;20750;-63
2023/11/14 08:34:08;;;;;;;17.83;4.50;;;;;;;12.83;82.15;99267.28;7392611;19;20960;-62
2023/11/14 08:36:35;;;;;;;12.80;3.75;;;;;;;12.86;82.58;99274.84;7390443;19;20336;-63
2023/11/14 08:39:02;;;;;;;19.08;3.97;;;;;;;12.88;82.89;99271.94;7392513;19;20855;-63
2023/11/14 08:41:28;;;;;;;15.20;3.70;;;;;;;12.90;82.63;99277.84;7392891;19;20384;-63
2023/11/14 08:43:57;;;;;;;16.10;4.07;;;;;;;12.88;82.27;99287.91;7391504;19;20464;-63
2023/11/14 08:46:24;;;;;;;14.10;3.80;;;;;;;12.85;81.32;99286.50;7394253;19;20353;-63
2023/11/14 08:48:52;;;;;;;15.82;4.03;;;;;;;12.95;80.94;99270.81;7391195;19;20863;-62
2023/11/14 08:51:20;;;;;;;15.80;3.47;;;;;;;13.05;80.56;99270.28;7386828;19;20693;-62
2023/11/14 08:53:47;;;;;;;16.43;3.67;;;;;;;13.13;80.39;99287.78;7393485;19;20820;-63
2023/11/14 08:56:14;;;;;;;15.80;3.60;;;;;;;13.11;81.18;99273.88;7393088;19;20375;-62
2023/11/14 08:58:41;;;;;;;16.23;3.78;;;;;;;13.08;82.11;99288.47;7392336;19;20356;-62
2023/11/14 09:01:07;;;;;;;15.13;3.75;;;;;;;12.98;81.61;99278.34;7391760;19;20428;-62
2023/11/14 09:03:34;;;;;;;19.13;4.13;;;;;;;12.87;81.94;99283.63;7391258;19;20457;-62
2023/11/14 09:06:02;;;;;;;17.20;3.83;;;;;;;12.89;82.07;99303.66;7389518;19;20368;-62
2023/11/14 09:08:29;;;;;;;13.40;3.97;;;;;;;12.88;82.42;99290.56;7390581;19;20436;-62
2023/11/14 09:10:55;;;;;;;18.48;4.00;;;;;;;12.94;82.47;99284.34;7388954;19;20401;-61
2023/11/14 09:13:22;;;;;;;14.52;3.17;;;;;;;13.03;81.79;99299.78;7389703;19;20370;-62
2023/11/14 09:15:49;;;;;;;16.95;3.60;;;;;;;13.02;80.97;99292.84;7390471;19;20885;-62
2023/11/14 09:18:16;;;;;;;11.90;3.45;;;;;;;13.09;81.45;99305.25;7391927;19;20400;-63
2023/11/14 09:20:43;;;;;;;13.10;3.17;;;;;;;13.10;82.44;99309.56;7389690;19;20380;-62
2023/11/14 09:23:10;;;;;;;11.48;3.28;;;;;;;13.09;82.32;99313.22;7389825;19;20878;-62
2023/11/14 09:25:37;;;;;;;11.73;3.60;;;;;;;13.06;81.91;99306.50;7391791;19;20347;-61
2023/11/14 09:28:03;;;;;;;15.13;4.07;;;;;;;13.00;81.45;99294.91;7386575;19;20420;-62
2023/11/14 09:30:30;;;;;;;14.25;3.80;;;;;;;13.01;81.28;99307.19;7391449;19;20423;-62
2023/11/14 09:32:57;;;;;;;14.88;3.10;;;;;;;13.03;80.58;99315.78;7392442;19;20344;-61
2023/11/14 09:35:24;;;;;;;16.45;4.22;;;;;;;12.96;79.72;99314.22;7390744;19;20399;-62
2023/11/14 09:37:51;;;;;;;16.13;4.00;;;;;;;13.06;80.23;99325.97;7387748;19;20372;-62
2023/11/14 09:40:21;;;;;;;12.30;3.33;;;;;;;13.10;79.62;99312.22;7396852;19;20359;-62
2023/11/14 09:42:51;;;;;;;15.27;3.40;;;;;;;13.26;79.82;99308.94;7393634;19;20371;-62
2023/11/14 09:45:20;;;;;;;13.93;3.83;;;;;;;13.21;79.30;99332.75;7394716;19;20348;-61
2023/11/14 09:47:49;;;;;;;17.48;3.53;;;;;;;13.30;79.18;99328.75;7396367;19;20876;-61
2023/11/14 09:50:17;;;;;;;14.45;3.58;;;;;;;13.33;79.03;99338.97;7395602;19;20397;-63
2023/11/14 09:52:45;;;;;;;11.35;2.63;;;;;;;13.32;78.50;99326.66;7396643;19;20364;-62
2023/11/14 09:55:12;;;;;;;14.43;3.33;;;;;;;13.45;79.05;99333.66;7398213;19;20349;-62
2023/11/14 09:57:39;;;;;;;12.52;2.83;;;;;;;13.60;78.79;99338.56;7396399;19;20424;-61
2023/11/14 10:00:11;;;;;;;14.00;3.60;;;;;;;13.60;78.44;99336.72;7395363;19;20365;-62
2023/11/14 10:02:40;;;;;;;13.43;3.30;;;;;;;13.52;78.86;99328.25;7391701;19;20705;-62
2023/11/14 10:05:08;;;;;;;14.13;3.40;;;;;;;13.45;80.07;99342.47;7390037;19;20377;-60
2023/11/14 10:07:43;;;;;;;14.82;3.97;;;;;;;13.36;83.79;99329.69;7396099;19;20364;-65
2023/11/14 10:10:11;;;;;;;17.40;3.65;;;;;;;13.23;84.13;99330.66;7396327;19;20367;-64
2023/11/14 10:12:39;;;;;;;13.43;3.75;;;;;;;13.05;85.31;99340.31;7396734;19;20377;-66
2023/11/14 10:15:10;;;;;;;12.98;3.50;;;;;;;12.85;86.31;99335.22;7397672;19;20369;-66
2023/11/14 10:17:45;;;;;;;17.40;4.28;;;;;;;12.65;87.65;99335.47;7397521;19;20935;-66
2023/11/14 10:20:14;;;;;;;17.40;4.28;;;;;;;12.57;87.70;99322.44;7392191;19;20899;-66
2023/11/14 10:22:52;;;;;;;18.23;4.20;;;;;;;12.53;87.74;99310.63;7394418;19;20340;-66
2023/11/14 10:25:33;;;;;;;15.35;3.88;;;;;;;12.52;88.08;99314.34;7392263;19;20404;-67
2023/11/14 10:28:05;;;;;;;20.38;4.28;;;;;;;12.50;87.39;99319.06;7395133;19;20372;-66
2023/11/14 10:30:41;;;;;;;19.08;4.53;;;;;;;12.55;86.52;99335.16;7393811;19;20410;-66
2023/11/14 10:33:09;;;;;;;14.48;3.50;;;;;;;12.62;85.68;99351.88;7392753;19;20385;-66
2023/11/14 10:35:36;;;;;;;15.52;3.88;;;;;;;12.69;85.09;99345.66;7394581;19;20360;-66
2023/11/14 10:38:19;;;;;;;17.70;4.13;;;;;;;12.74;84.82;99327.19;7391983;19;20408;-66
2023/11/14 10:40:50;;;;;;;19.57;4.27;;;;;;;12.80;84.98;99327.09;7396687;19;20361;-66
2023/11/14 10:43:31;;;;;;;16.90;4.22;;;;;;;12.88;83.45;99322.50;7397420;19;20704;-65
2023/11/14 10:46:01;;;;;;;16.98;3.78;;;;;;;12.95;83.18;99326.72;7395623;19;20352;-65
2023/11/14 10:48:28;;;;;;;15.13;4.38;;;;;;;13.02;82.84;99330.09;7394988;19;20368;-65
2023/11/14 10:50:55;;;;;;;18.85;4.35;;;;;;;13.09;82.15;99318.56;7392916;19;20368;-65
2023/11/14 10:53:24;;;;;;;14.50;3.72;;;;;;;13.13;82.16;99333.06;7394113;19;20364;-65
2023/11/14 10:55:51;;;;;;;14.02;4.03;;;;;;;13.09;82.52;99294.59;7390859;19;20702;-65
2023/11/14 10:58:20;;;;;;;19.13;4.63;;;;;;;13.07;82.32;99316.16;7396086;19;20863;-65
2023/11/14 11:00:47;;;;;;;18.20;3.87;;;;;;;13.14;82.08;99316.06;7395828;19;20454;-65
2023/11/14 11:03:14;;;;;;;17.02;4.85;;;;;;;13.21;82.57;99322.91;7393414;19;20368;-65
2023/11/14 11:05:41;;;;;;;17.98;4.13;;;;;;;13.12;82.15;99316.25;7395156;19;20668;-65
2023/11/14 11:08:12;;;;;;;15.05;3.63;;;;;;;13.17;82.38;99320.91;7395488;19;20365;-65
2023/11/14 11:10:45;;;;;;;22.83;4.57;;;;;;;13.22;82.93;99307.75;7394169;19;20742;-65
2023/11/14 11:13:21;;;;;;;22.15;4.03;;;;;;;13.31;82.76;99292.28;7393758;19;20365;-65
2023/11/14 11:15:50;;;;;;;19.40;4.07;;;;;;;13.40;80.65;99304.22;7394503;19;20365;-65
2023/11/14 11:18:25;;;;;;;16.17;4.17;;;;;;;13.65;79.65;99309.41;7393475;19;20357;-65
2023/11/14 11:21:08;;;;;;;18.73;4.85;;;;;;;14.01;77.64;99300.41;7394771;19;20344;-64
2023/11/14 11:24:11;;;;;;;15.18;3.47;;;;;;;14.21;76.59;99294.69;7395156;19;20344;-65
2023/11/14 11:27:09;;;;;;;18.05;4.10;;;;;;;14.33;75.82;99286.69;7393108;19;20400;-63